createdAt,value
2019-03-27T00:01:48.921Z,44.40
2019-03-27T00:04:20.487Z,45.38
2019-03-27T00:06:50.932Z,46.39
2019-03-27T00:09:21.071Z,46.77
2019-03-27T00:11:51.706Z,46.10
2019-03-27T00:16:55.969Z,47.11
2019-03-27T00:19:26.206Z,47.16
2019-03-27T00:21:56.968Z,47.46
2019-03-27T00:24:26.983Z,47.87
2019-03-27T00:26:56.997Z,47.56
2019-03-27T00:29:27.152Z,46.99
2019-03-27T00:31:57.813Z,46.72
2019-03-27T00:34:27.905Z,45.95
2019-03-27T00:36:58.303Z,46.15
2019-03-27T00:39:28.804Z,46.51
2019-03-27T00:41:59.031Z,47.01
2019-03-27T00:44:29.603Z,47.32
2019-03-27T00:46:59.504Z,48.29
2019-03-27T00:49:29.547Z,48.34
2019-03-27T00:51:59.930Z,48.08
2019-03-27T00:54:30.555Z,47.54
2019-03-27T00:57:00.966Z,48.94
2019-03-27T00:59:31.744Z,47.77
2019-03-27T01:02:00.947Z,47.02
2019-03-27T01:04:31.307Z,47.04
2019-03-27T01:07:01.964Z,45.95
2019-03-27T01:09:32.518Z,46.89
2019-03-27T01:12:02.948Z,47.83
2019-03-27T01:14:33.558Z,47.83
2019-03-27T01:17:03.986Z,48.03
2019-03-27T01:19:35.468Z,47.42
2019-03-27T01:22:05.890Z,50.82
2019-03-27T01:24:36.299Z,50.82
2019-03-27T01:27:06.753Z,51.58
2019-03-27T01:29:35.896Z,52.29
2019-03-27T01:32:06.286Z,53.02
2019-03-27T01:34:36.759Z,51.88
2019-03-27T01:37:07.082Z,51.35
2019-03-27T01:39:37.527Z,52.19
2019-03-27T01:42:08.188Z,51.28
2019-03-27T01:44:38.719Z,51.28
2019-03-27T01:47:08.989Z,50.46
2019-03-27T01:49:39.144Z,49.34
2019-03-27T01:52:10.272Z,51.05
2019-03-27T01:54:40.891Z,51.75
2019-03-27T01:57:11.066Z,51.66
2019-03-27T01:59:41.560Z,50.79
2019-03-27T02:02:12.576Z,51.47
2019-03-27T02:04:43.128Z,52.00
2019-03-27T02:07:13.619Z,52.00
2019-03-27T02:09:43.938Z,51.89
2019-03-27T02:12:14.082Z,51.89
2019-03-27T02:14:44.566Z,51.79
2019-03-27T02:17:14.863Z,54.67
2019-03-27T02:19:45.030Z,54.67
2019-03-27T02:22:15.911Z,55.37
2019-03-27T02:24:46.302Z,57.19
2019-03-27T02:27:16.722Z,57.50
2019-03-27T02:29:45.941Z,56.42
2019-03-27T02:32:20.266Z,55.72
2019-03-27T02:34:48.090Z,56.26
2019-03-27T02:37:18.576Z,56.25
2019-03-27T02:39:48.955Z,56.53
2019-03-27T02:42:19.096Z,58.22
2019-03-27T02:44:49.936Z,56.93
2019-03-27T02:47:20.296Z,58.87
2019-03-27T02:49:50.737Z,59.03
2019-03-27T02:52:20.944Z,59.44
2019-03-27T02:54:51.046Z,59.81
2019-03-27T02:59:11.965Z,58.05
2019-03-27T03:01:42.405Z,57.71
2019-03-27T03:04:12.936Z,57.51
2019-03-27T03:06:43.050Z,58.08
2019-03-27T03:09:13.615Z,59.96
2019-03-27T03:11:43.958Z,59.82
2019-03-27T03:14:13.945Z,59.82
2019-03-27T03:16:44.430Z,60.26
2019-03-27T03:19:14.877Z,59.58
2019-03-27T03:21:46.577Z,58.66
2019-03-27T03:24:16.865Z,58.17
2019-03-27T03:26:50.600Z,56.86
2019-03-27T03:29:19.530Z,57.00
2019-03-27T03:31:49.922Z,56.44
2019-03-27T03:34:20.047Z,55.97
2019-03-27T03:36:51.755Z,56.52
2019-03-27T03:39:21.101Z,56.92
2019-03-27T03:41:51.487Z,56.30
2019-03-27T03:44:21.913Z,56.09
2019-03-27T03:46:59.471Z,56.09
2019-03-27T03:49:24.033Z,55.81
2019-03-27T03:51:54.735Z,57.11
2019-03-27T03:54:24.472Z,56.44
2019-03-27T03:56:57.704Z,55.77
2019-03-27T03:59:29.019Z,55.59
2019-03-27T04:02:03.867Z,55.00
2019-03-27T04:04:36.918Z,55.10
2019-03-27T04:07:07.017Z,55.07
2019-03-27T04:09:37.569Z,55.76
2019-03-27T04:12:07.808Z,56.41
2019-03-27T04:14:37.938Z,55.92
2019-03-27T04:17:17.102Z,56.12
2019-03-27T04:19:40.425Z,55.77
2019-03-27T04:22:10.934Z,55.92
2019-03-27T04:24:41.318Z,55.93
2019-03-27T04:27:11.866Z,55.72
2019-03-27T04:29:42.404Z,56.47
2019-03-27T04:32:13.833Z,56.19
2019-03-27T04:34:47.189Z,56.76
2019-03-27T04:37:18.118Z,56.98
2019-03-27T04:39:48.884Z,56.84
2019-03-27T04:42:21.315Z,57.80
2019-03-27T04:44:52.060Z,58.30
2019-03-27T04:47:32.185Z,58.91
2019-03-27T04:49:56.521Z,57.59
2019-03-27T04:52:27.537Z,57.59
2019-03-27T04:54:58.051Z,57.59
2019-03-27T04:57:29.425Z,58.08
2019-03-27T05:00:00.046Z,58.20
2019-03-27T05:02:31.348Z,58.38
2019-03-27T05:05:03.808Z,58.80
2019-03-27T05:07:34.393Z,58.62
2019-03-27T05:10:05.510Z,58.56
2019-03-27T05:12:38.426Z,57.70
2019-03-27T05:15:06.993Z,57.90
2019-03-27T05:17:45.761Z,58.09
2019-03-27T05:20:10.651Z,58.96
2019-03-27T05:22:40.893Z,59.09
2019-03-27T05:25:12.003Z,59.09
2019-03-27T05:27:42.738Z,58.65
2019-03-27T05:30:17.726Z,58.38
2019-03-27T05:32:46.872Z,57.89
2019-03-27T05:35:18.306Z,57.71
2019-03-27T05:37:49.312Z,57.88
2019-03-27T05:40:19.958Z,57.86
2019-03-27T05:43:00.494Z,57.35
2019-03-27T05:45:23.993Z,56.98
2019-03-27T05:47:59.862Z,56.77
2019-03-27T05:50:27.449Z,57.02
2019-03-27T05:52:57.959Z,56.56
2019-03-27T05:55:28.979Z,57.84
2019-03-27T05:58:00.150Z,58.81
2019-03-27T06:00:33.411Z,59.19
2019-03-27T06:03:03.674Z,56.94
2019-03-27T06:05:34.212Z,56.42
2019-03-27T06:08:05.152Z,56.42
2019-03-27T06:10:36.093Z,55.45
2019-03-27T06:13:07.535Z,55.25
2019-03-27T06:15:38.506Z,55.06
2019-03-27T06:18:13.248Z,54.60
2019-03-27T06:20:40.899Z,54.60
2019-03-27T06:23:12.443Z,55.72
2019-03-27T06:25:42.779Z,55.91
2019-03-27T06:28:12.954Z,55.13
2019-03-27T06:30:44.065Z,53.99
2019-03-27T06:33:15.291Z,53.15
2019-03-27T06:35:45.822Z,52.24
2019-03-27T06:38:16.898Z,52.42
2019-03-27T06:40:47.759Z,52.35
2019-03-27T06:43:18.819Z,52.45
2019-03-27T06:45:49.008Z,53.32
2019-03-27T06:48:26.146Z,53.34
2019-03-27T06:50:53.044Z,52.04
2019-03-27T06:53:24.105Z,52.61
2019-03-27T06:55:55.595Z,51.36
2019-03-27T06:58:26.722Z,51.43
2019-03-27T07:00:56.815Z,51.07
2019-03-27T07:03:27.287Z,51.29
2019-03-27T07:05:58.468Z,50.64
2019-03-27T07:08:29.147Z,51.01
2019-03-27T07:11:00.437Z,50.56
2019-03-27T07:13:31.625Z,49.04
2019-03-27T07:16:01.454Z,50.99
2019-03-27T07:18:39.971Z,50.99
2019-03-27T07:21:04.325Z,49.66
2019-03-27T07:23:35.491Z,49.39
2019-03-27T07:26:06.649Z,48.04
2019-03-27T07:28:36.123Z,48.04
2019-03-27T07:31:06.958Z,47.50
2019-03-27T07:33:38.288Z,47.28
2019-03-27T07:36:09.451Z,46.09
2019-03-27T07:38:41.289Z,46.84
2019-03-27T07:41:12.290Z,47.08
2019-03-27T07:43:43.502Z,46.89
2019-03-27T07:46:14.646Z,46.63
2019-03-27T07:48:53.720Z,46.63
2019-03-27T07:51:19.298Z,46.36
2019-03-27T07:53:51.291Z,46.90
2019-03-27T07:56:21.731Z,47.24
2019-03-27T07:58:51.270Z,46.31
2019-03-27T08:01:22.322Z,44.12
2019-03-27T08:03:53.448Z,44.12
2019-03-27T08:06:23.783Z,43.97
2019-03-27T08:08:53.298Z,42.13
2019-03-27T08:11:24.177Z,40.12
2019-03-27T08:13:54.763Z,38.50
2019-03-27T08:16:25.026Z,36.70
2019-03-27T08:19:06.846Z,35.77
2019-03-27T08:21:31.220Z,35.31
2019-03-27T08:24:02.296Z,34.89
2019-03-27T08:26:32.821Z,34.69
2019-03-27T08:29:04.290Z,33.64
2019-03-27T08:31:35.325Z,34.45
2019-03-27T08:34:06.819Z,32.29
2019-03-27T08:36:37.975Z,30.65
2019-03-27T08:39:09.967Z,29.58
2019-03-27T08:41:41.464Z,29.13
2019-03-27T08:44:11.948Z,27.11
2019-03-27T08:46:42.819Z,26.59
2019-03-27T08:49:21.903Z,22.91
2019-03-27T08:51:45.270Z,21.39
2019-03-27T08:54:16.142Z,21.57
2019-03-27T08:56:46.955Z,23.83
2019-03-27T08:59:17.771Z,21.78
2019-03-27T09:01:48.518Z,19.13
2019-03-27T09:04:19.198Z,17.25
2019-03-27T09:06:50.102Z,15.69
2019-03-27T09:09:20.738Z,14.49
2019-03-27T09:11:51.968Z,14.48
2019-03-27T09:14:25.511Z,15.45
2019-03-27T09:16:56.328Z,20.75
2019-03-27T09:19:35.694Z,20.75
2019-03-27T09:21:59.979Z,23.55
2019-03-27T09:24:30.946Z,24.54
2019-03-27T09:27:01.943Z,25.87
2019-03-27T09:29:33.306Z,26.11
2019-03-27T09:32:04.326Z,26.81
2019-03-27T09:34:35.024Z,26.96
2019-03-27T09:37:06.306Z,27.70
2019-03-27T09:39:36.821Z,30.03
2019-03-27T09:42:08.372Z,31.33
2019-03-27T09:44:38.994Z,31.54
2019-03-27T09:47:10.053Z,31.82
2019-03-27T09:49:49.528Z,32.30
2019-03-27T09:52:14.334Z,32.61
2019-03-27T09:54:44.950Z,32.39
2019-03-27T09:57:15.652Z,33.87
2019-03-27T09:59:45.018Z,34.02
2019-03-27T10:02:16.369Z,34.02
2019-03-27T10:04:47.545Z,32.31
2019-03-27T10:07:18.650Z,31.21
2019-03-27T10:09:50.360Z,29.60
2019-03-27T10:12:21.037Z,28.20
2019-03-27T10:14:52.078Z,27.70
2019-03-27T10:17:23.022Z,27.73
2019-03-27T10:20:03.324Z,27.16
2019-03-27T10:22:26.345Z,26.56
2019-03-27T10:24:57.146Z,27.80
2019-03-27T10:27:27.588Z,28.43
2019-03-27T10:29:57.951Z,29.52
2019-03-27T10:32:28.099Z,29.52
2019-03-27T10:34:58.865Z,30.32
2019-03-27T10:37:28.950Z,30.40
2019-03-27T10:39:59.600Z,33.20
2019-03-27T10:42:29.981Z,33.69
2019-03-27T10:45:00.031Z,33.69
2019-03-27T10:47:30.570Z,33.21
2019-03-27T10:50:00.921Z,33.02
2019-03-27T10:52:31.106Z,32.01
2019-03-27T10:55:01.744Z,31.24
2019-03-27T10:57:32.024Z,32.39
2019-03-27T11:00:02.994Z,32.20
2019-03-27T11:02:34.839Z,28.16
2019-03-27T11:05:05.459Z,25.52
2019-03-27T11:07:36.309Z,26.14
2019-03-27T11:10:07.777Z,26.28
2019-03-27T11:12:38.389Z,25.04
2019-03-27T11:15:10.762Z,19.73
2019-03-27T11:17:41.235Z,16.85
2019-03-27T11:20:12.521Z,17.13
2019-03-27T11:22:43.537Z,20.11
2019-03-27T11:25:17.940Z,20.11
2019-03-27T11:27:49.000Z,16.95
2019-03-27T11:30:25.516Z,16.40
2019-03-27T11:32:57.795Z,18.15
2019-03-27T11:35:29.294Z,18.27
2019-03-27T11:38:01.300Z,19.26
2019-03-27T11:40:32.895Z,19.63
2019-03-27T11:43:05.129Z,22.99
2019-03-27T11:45:37.816Z,23.16
2019-03-27T11:48:09.498Z,24.22
2019-03-27T11:50:45.309Z,24.66
2019-03-27T11:53:12.634Z,26.33
2019-03-27T11:55:42.611Z,28.46
2019-03-27T11:58:18.107Z,28.46
2019-03-27T12:00:54.799Z,30.28
2019-03-27T12:03:22.617Z,29.93
2019-03-27T12:05:52.967Z,32.43
2019-03-27T12:08:23.869Z,32.19
2019-03-27T12:10:54.367Z,30.44
2019-03-27T12:13:25.432Z,30.73
2019-03-27T12:15:56.363Z,31.19
2019-03-27T12:18:27.053Z,30.47
2019-03-27T12:20:59.783Z,24.30
2019-03-27T12:23:30.765Z,18.36
2019-03-27T12:26:02.059Z,15.79
2019-03-27T12:28:32.966Z,13.96
2019-03-27T12:31:03.969Z,12.03
2019-03-27T12:33:35.312Z,13.00
2019-03-27T12:36:06.491Z,16.49
2019-03-27T12:38:38.933Z,23.15
2019-03-27T12:41:10.319Z,28.50
2019-03-27T12:43:42.521Z,32.39
2019-03-27T12:46:13.695Z,35.68
2019-03-27T12:48:43.649Z,35.68
2019-03-27T12:51:14.295Z,35.11
2019-03-27T12:53:44.939Z,35.11
2019-03-27T12:56:15.726Z,35.34
2019-03-27T12:58:46.305Z,35.25
2019-03-27T13:01:17.803Z,35.51
2019-03-27T13:03:48.817Z,34.60
2019-03-27T13:06:20.299Z,33.76
2019-03-27T13:08:52.077Z,32.34
2019-03-27T13:11:23.301Z,32.39
2019-03-27T13:13:54.073Z,31.21
2019-03-27T13:16:24.932Z,28.57
2019-03-27T13:18:56.374Z,27.50
2019-03-27T13:21:27.118Z,27.96
2019-03-27T13:23:58.488Z,27.58
2019-03-27T13:26:29.595Z,25.81
2019-03-27T13:29:01.566Z,24.81
2019-03-27T13:31:32.297Z,24.81
2019-03-27T13:34:03.311Z,23.35
2019-03-27T13:36:36.536Z,24.44
2019-03-27T13:39:09.315Z,25.49
2019-03-27T13:41:40.572Z,26.78
2019-03-27T13:44:11.596Z,26.78
2019-03-27T13:46:41.281Z,29.80
2019-03-27T13:49:12.538Z,32.09
2019-03-27T13:51:43.978Z,31.74
2019-03-27T13:54:14.738Z,31.30
2019-03-27T13:56:45.459Z,30.25
2019-03-27T13:59:16.498Z,29.87
2019-03-27T14:01:47.190Z,31.28
2019-03-27T14:04:18.094Z,31.80
2019-03-27T14:06:49.660Z,31.34
2019-03-27T14:09:19.454Z,31.00
2019-03-27T14:11:50.514Z,29.03
2019-03-27T14:14:21.625Z,30.63
2019-03-27T14:16:52.827Z,30.63
2019-03-27T14:19:23.482Z,29.09
2019-03-27T14:21:55.213Z,28.36
2019-03-27T14:24:26.456Z,27.85
2019-03-27T14:26:56.995Z,28.18
2019-03-27T14:29:27.562Z,28.74
2019-03-27T14:31:58.605Z,29.45
2019-03-27T14:34:29.309Z,28.60
2019-03-27T14:37:00.423Z,28.60
2019-03-27T14:39:31.602Z,28.11
2019-03-27T14:42:03.275Z,26.36
2019-03-27T14:44:36.417Z,25.63
2019-03-27T14:47:08.293Z,24.81
2019-03-27T14:49:39.599Z,24.81
2019-03-27T14:52:09.797Z,24.16
2019-03-27T14:54:41.483Z,23.90
2019-03-27T14:57:13.474Z,25.16
2019-03-27T14:59:43.521Z,26.98
2019-03-27T15:02:15.295Z,28.19
2019-03-27T15:04:46.291Z,28.19
2019-03-27T15:07:17.578Z,31.33
2019-03-27T15:09:48.078Z,29.84
2019-03-27T15:12:19.286Z,29.84
2019-03-27T15:14:50.451Z,29.66
2019-03-27T15:17:21.290Z,30.47
2019-03-27T15:19:51.968Z,29.22
2019-03-27T15:22:23.034Z,30.24
2019-03-27T15:24:54.292Z,30.15
2019-03-27T15:27:25.055Z,30.69
2019-03-27T15:29:56.039Z,31.35
2019-03-27T15:32:27.780Z,31.08
2019-03-27T15:34:57.390Z,30.68
2019-03-27T15:37:28.497Z,31.20
2019-03-27T15:40:00.478Z,30.36
2019-03-27T15:42:31.327Z,31.11
2019-03-27T15:45:02.310Z,31.11
2019-03-27T15:47:34.466Z,30.64
2019-03-27T15:50:05.608Z,30.23
2019-03-27T15:52:37.093Z,30.37
2019-03-27T15:55:08.825Z,30.37
2019-03-27T15:57:40.412Z,31.90
2019-03-27T16:00:11.246Z,31.12
2019-03-27T16:02:42.895Z,31.51
2019-03-27T16:05:14.299Z,31.51
2019-03-27T16:07:46.772Z,31.12
2019-03-27T16:10:19.515Z,30.22
2019-03-27T16:12:49.446Z,31.23
2019-03-27T16:15:20.516Z,31.30
2019-03-27T16:17:52.745Z,31.12
2019-03-27T16:20:24.126Z,31.12
2019-03-27T16:22:55.977Z,30.85
2019-03-27T16:25:27.571Z,30.48
2019-03-27T16:27:58.685Z,30.46
2019-03-27T16:30:28.555Z,31.10
2019-03-27T16:32:59.102Z,32.19
2019-03-27T16:35:29.809Z,32.19
2019-03-27T16:38:00.350Z,31.49
2019-03-27T16:40:49.097Z,31.24
2019-03-27T16:43:19.986Z,32.50
2019-03-27T16:45:51.022Z,32.02
2019-03-27T16:48:21.753Z,32.30
2019-03-27T16:50:52.030Z,32.76
2019-03-27T16:53:22.977Z,33.06
2019-03-27T16:55:53.103Z,32.52
2019-03-27T16:58:23.677Z,32.08
2019-03-27T17:00:52.962Z,31.88
2019-03-27T17:03:23.510Z,31.82
2019-03-27T17:05:54.198Z,31.81
2019-03-27T17:08:24.024Z,31.81
2019-03-27T17:10:54.855Z,31.59
2019-03-27T17:13:26.535Z,32.59
2019-03-27T17:15:57.407Z,32.94
2019-03-27T17:18:28.281Z,33.35
2019-03-27T17:20:58.974Z,32.72
2019-03-27T17:23:30.491Z,32.72
2019-03-27T17:26:01.201Z,33.03
2019-03-27T17:28:33.015Z,32.97
2019-03-27T17:31:03.932Z,33.33
2019-03-27T17:33:34.468Z,33.47
2019-03-27T17:36:04.271Z,34.19
2019-03-27T17:38:34.253Z,33.71
2019-03-27T17:41:04.851Z,33.92
2019-03-27T17:43:35.209Z,34.43
2019-03-27T17:46:05.975Z,34.82
2019-03-27T17:48:36.895Z,35.88
2019-03-27T17:51:07.979Z,35.47
2019-03-27T17:53:39.053Z,34.89
2019-03-27T17:56:10.026Z,35.25
2019-03-27T17:58:40.949Z,35.59
2019-03-27T18:01:11.927Z,35.60
2019-03-27T18:03:43.007Z,35.52
2019-03-27T18:06:13.445Z,35.65
2019-03-27T18:08:44.120Z,36.61
2019-03-27T18:11:15.106Z,36.61
2019-03-27T18:13:46.110Z,36.88
2019-03-27T18:16:17.428Z,37.54
2019-03-27T18:18:47.943Z,38.15
2019-03-27T18:21:21.286Z,38.38
2019-03-27T18:23:52.069Z,38.31
2019-03-27T18:26:23.349Z,38.31
2019-03-27T18:28:53.982Z,39.01
2019-03-27T18:31:25.518Z,39.39
2019-03-27T18:33:56.314Z,38.53
2019-03-27T18:36:27.333Z,39.00
2019-03-27T18:38:58.051Z,39.00
2019-03-27T18:41:44.012Z,40.03
2019-03-27T18:44:15.102Z,40.73
2019-03-27T18:46:46.705Z,40.33
2019-03-27T18:49:15.976Z,40.46
2019-03-27T18:51:47.072Z,40.46
2019-03-27T18:54:18.639Z,40.02
2019-03-27T18:56:48.255Z,39.92
2019-03-27T18:59:19.084Z,39.65
2019-03-27T19:01:50.008Z,39.13
2019-03-27T19:04:21.326Z,39.21
2019-03-27T19:06:52.063Z,39.13
2019-03-27T19:09:22.810Z,40.54
2019-03-27T19:11:52.963Z,40.51
2019-03-27T19:14:23.397Z,41.26
2019-03-27T19:16:54.302Z,41.64
2019-03-27T19:19:25.165Z,42.39
2019-03-27T19:21:57.795Z,42.79
2019-03-27T19:24:28.575Z,43.34
2019-03-27T19:26:59.422Z,44.03
2019-03-27T19:29:30.110Z,44.03
2019-03-27T19:32:00.974Z,43.73
2019-03-27T19:34:31.974Z,44.21
2019-03-27T19:37:03.908Z,44.09
2019-03-27T19:39:34.985Z,44.54
2019-03-27T19:42:05.993Z,44.26
2019-03-27T19:44:37.290Z,44.31
2019-03-27T19:47:07.995Z,44.82
2019-03-27T19:49:38.834Z,44.26
2019-03-27T19:52:10.373Z,44.67
2019-03-27T19:54:41.159Z,44.22
2019-03-27T19:57:12.530Z,44.38
2019-03-27T19:59:44.659Z,44.08
2019-03-27T20:02:15.042Z,43.80
2019-03-27T20:04:46.410Z,44.81
2019-03-27T20:07:17.696Z,44.51
2019-03-27T20:09:48.911Z,45.15
2019-03-27T20:12:20.520Z,45.15
2019-03-27T20:14:51.513Z,44.77
2019-03-27T20:17:22.579Z,44.77
2019-03-27T20:19:53.915Z,44.47
2019-03-27T20:22:25.010Z,43.93
2019-03-27T20:24:56.085Z,44.23
2019-03-27T20:27:27.320Z,45.29
2019-03-27T20:29:58.543Z,45.22
2019-03-27T20:32:29.823Z,45.42
2019-03-27T20:35:00.797Z,45.42
2019-03-27T20:37:32.002Z,46.18
2019-03-27T20:40:03.154Z,46.64
2019-03-27T20:42:34.164Z,47.18
2019-03-27T20:45:08.923Z,46.08
2019-03-27T20:47:40.271Z,47.27
2019-03-27T20:50:12.981Z,49.16
2019-03-27T20:52:44.591Z,49.94
2019-03-27T20:55:29.563Z,50.04
2019-03-27T20:57:51.584Z,50.59
2019-03-27T21:00:24.628Z,50.40
2019-03-27T21:02:57.560Z,50.16
2019-03-27T21:05:27.652Z,50.76
2019-03-27T21:07:59.628Z,50.67
2019-03-27T21:10:29.294Z,50.16
2019-03-27T21:13:00.343Z,49.33
2019-03-27T21:15:31.306Z,50.22
2019-03-27T21:18:02.552Z,50.59
2019-03-27T21:20:33.560Z,51.91
2019-03-27T21:23:04.561Z,51.91
2019-03-27T21:25:34.661Z,52.43
2019-03-27T21:28:04.060Z,52.77
2019-03-27T21:30:35.175Z,53.49
2019-03-27T21:33:07.918Z,54.12
2019-03-27T21:35:39.126Z,54.56
2019-03-27T21:38:10.450Z,55.15
2019-03-27T21:40:41.305Z,54.83
2019-03-27T21:43:12.327Z,54.83
2019-03-27T21:45:43.659Z,54.88
2019-03-27T21:48:14.558Z,56.63
2019-03-27T21:50:45.323Z,56.63
2019-03-27T21:53:15.949Z,56.40
2019-03-27T21:55:46.805Z,55.92
2019-03-27T21:58:18.511Z,57.20
2019-03-27T22:00:49.069Z,57.24
2019-03-27T22:03:20.536Z,57.36
2019-03-27T22:05:51.362Z,56.82
2019-03-27T22:08:22.810Z,57.21
2019-03-27T22:10:53.463Z,57.49
2019-03-27T22:13:24.061Z,56.99
2019-03-27T22:15:55.006Z,57.17
2019-03-27T22:18:26.010Z,57.65
2019-03-27T22:20:56.780Z,59.11
2019-03-27T22:23:26.439Z,59.80
2019-03-27T22:25:57.271Z,60.47
2019-03-27T22:28:28.306Z,60.56
2019-03-27T22:30:59.005Z,60.94
2019-03-27T22:33:47.054Z,60.63
2019-03-27T22:36:18.139Z,60.10
2019-03-27T22:38:49.118Z,59.92
2019-03-27T22:41:19.812Z,60.41
2019-03-27T22:43:49.289Z,60.09
2019-03-27T22:46:21.034Z,60.93
2019-03-27T22:48:53.030Z,61.16
2019-03-27T22:51:24.917Z,61.37
2019-03-27T22:53:55.750Z,61.42
2019-03-27T22:56:25.303Z,60.57
2019-03-27T22:58:56.844Z,61.34
2019-03-27T23:01:46.461Z,62.31
2019-03-27T23:04:17.006Z,62.99
2019-03-27T23:06:47.670Z,62.76
2019-03-27T23:09:18.308Z,62.64
2019-03-27T23:11:49.330Z,61.81
2019-03-27T23:14:19.993Z,62.40
2019-03-27T23:16:50.737Z,61.73
2019-03-27T23:19:21.007Z,62.68
2019-03-27T23:21:52.293Z,63.69
2019-03-27T23:24:23.060Z,63.08
2019-03-27T23:26:53.841Z,62.76
2019-03-27T23:29:25.009Z,62.18
2019-03-27T23:31:55.933Z,62.51
2019-03-27T23:34:26.330Z,62.49
2019-03-27T23:36:57.428Z,62.75
2019-03-27T23:39:28.346Z,63.18
2019-03-27T23:41:58.950Z,63.63
2019-03-27T23:44:30.897Z,64.27
2019-03-27T23:47:01.375Z,64.52
2019-03-27T23:49:32.317Z,64.15
2019-03-27T23:52:02.989Z,65.37
2019-03-27T23:54:34.299Z,65.01
2019-03-27T23:57:05.019Z,64.03
2019-03-27T23:59:35.060Z,65.02
